Darstellungsparameter: Aktuell verwendete Einstellungen:
Skalierung der Graphiken ... ?
xyx+y,   Skalierungsfaktor:      Skalierung: Modus: x, Faktor: 1
Darstellungszeitraum ... ?
Vom - - bis: - -   Zeitraum: 21.02.2022 - 21.02.2022
Min/Max/Avg-Anzeige ... ?
Zeige MMA aktuell
Zeige MMA Monat
Zeige MMA alles
Zeige --A aktuell
Zeige --A Monat
Zeige --A alles
Keine MMA-Anzeige
MMA:
Keine MMA-Graphiken
MMA-Basis: 21.02.2022 - 21.02.2022
Quicknavigation für Darstellung... ?
Tage:      1T, 2T, 3T, 5T -1T -2T -3T -5T +1T +2T +3T +5T
Wochen: 1W, 2W, 3W -1W -2W -3W +1W +2W +3W
Monate: 1M, 3M, 6M -1M -3M -6M +1M +3M +6M
Jahre:    1J, 3J, 5J, 10J -1J -3J -5J -10J +1J +3J +5J +10J
Nutze für die Darstellung ... ?
Originaldaten oder Mittelwerte auf ...
Stundenbasis Tagesbasis Wochenbasis
Monatsbasis Jahresbasis      Datenbasis: Original-Daten
Darstellen als:
Statistik (Auto) Statistik J:M      Darstellung:
Zur Graphik,    zurück zur Übersicht aller Sensoren.
 
Tabellarische Datenbersicht: ?
 
Sensor: Nr:Datum:Temp:Abs-Feuchte:Windchill:Wind:
Aussen-T/F 1 21-02-2022 00:00:00 10.7 C 8.25 g/m*3 7.16 C 35.4 km/h
2 21-02-2022 00:05:00 10.8 C 8.2 g/m*3 7.29 C 35.4 km/h
3 21-02-2022 00:10:00 10.8 C 8.2 g/m*3 7.58 C 30.6 km/h
4 21-02-2022 00:15:00 10.8 C 8.3 g/m*3 7.68 C 29 km/h
5 21-02-2022 00:20:00 10.7 C 8.35 g/m*3 7.79 C 25.7 km/h
6 21-02-2022 00:25:00 10.6 C 8.3 g/m*3 6.94 C 37 km/h
7 21-02-2022 00:30:00 10.6 C 8.3 g/m*3 7.12 C 33.8 km/h
8 21-02-2022 00:35:00 10.6 C 8.3 g/m*3 7.12 C 33.8 km/h
9 21-02-2022 00:40:00 10.7 C 8.35 g/m*3 7.45 C 30.6 km/h
10 21-02-2022 00:45:00 10.7 C 8.35 g/m*3 6.9 C 40.2 km/h
11 21-02-2022 00:50:00 10.6 C 8.39 g/m*3 7.12 C 33.8 km/h
12 21-02-2022 00:55:00 10.4 C 8.38 g/m*3 7.28 C 27.4 km/h
13 21-02-2022 01:00:00 10.4 C 8.48 g/m*3 7.06 C 30.6 km/h
14 21-02-2022 01:05:00 10.3 C 8.52 g/m*3 7.15 C 27.4 km/h
15 21-02-2022 01:10:00 10.2 C 8.47 g/m*3 6.8 C 30.6 km/h
16 21-02-2022 01:15:00 10.1 C 8.51 g/m*3 7.42 C 20.9 km/h
17 21-02-2022 01:20:00 10 C 8.46 g/m*3 7.29 C 20.9 km/h
18 21-02-2022 01:25:00 9.9 C 8.5 g/m*3 8.06 C 12.9 km/h
19 21-02-2022 01:30:00 9.8 C 8.44 g/m*3 6.76 C 24.1 km/h
20 21-02-2022 01:35:00 9.8 C 8.54 g/m*3 6.38 C 29 km/h
21 21-02-2022 01:40:00 8.9 C 7.88 g/m*3 4.88 C 33.8 km/h
22 21-02-2022 01:45:00 8.1 C 7.32 g/m*3 4.3 C 27.4 km/h
23 21-02-2022 01:50:00 7.6 C 7.17 g/m*3 3.52 C 29 km/h
24 21-02-2022 01:55:00 7.4 C 7.16 g/m*3 4.17 C 19.3 km/h
25 21-02-2022 02:00:00 7.4 C 7.08 g/m*3 4 C 20.9 km/h
Sensor: Nr:Datum:Temp:Abs-Feuchte:Windchill:Wind:
Aussen-T/F 26 21-02-2022 02:05:00 7.5 C 7.04 g/m*3 3.03 C 33.8 km/h
27 21-02-2022 02:10:00 7.3 C 6.72 g/m*3 3.55 C 24.1 km/h
28 21-02-2022 02:15:00 6.9 C 6.47 g/m*3 3.2 C 22.5 km/h
29 21-02-2022 02:20:00 6.7 C 6.23 g/m*3 3.11 C 20.9 km/h
30 21-02-2022 02:25:00 6.7 C 6.23 g/m*3 3.11 C 20.9 km/h
31 21-02-2022 02:30:00 6.6 C 6.19 g/m*3 3.36 C 17.7 km/h
32 21-02-2022 02:35:00 6.6 C 6.27 g/m*3 3.36 C 17.7 km/h
33 21-02-2022 02:40:00 6.6 C 6.19 g/m*3 2.66 C 24.1 km/h
34 21-02-2022 02:45:00 6.7 C 6.23 g/m*3 3.69 C 16.1 km/h
35 21-02-2022 02:50:00 6.7 C 6.23 g/m*3 4.44 C 11.3 km/h
36 21-02-2022 02:55:00 6.7 C 6.23 g/m*3 3.69 C 16.1 km/h
37 21-02-2022 03:00:00 6.7 C 6.23 g/m*3 3.69 C 16.1 km/h
38 21-02-2022 03:05:00 6.8 C 6.27 g/m*3 4.04 C 14.5 km/h
39 21-02-2022 03:10:00 6.8 C 6.27 g/m*3 3.61 C 17.7 km/h
40 21-02-2022 03:15:00 6.8 C 6.35 g/m*3 4.56 C 11.3 km/h
41 21-02-2022 03:20:00 6.7 C 6.31 g/m*3 3.92 C 14.5 km/h
42 21-02-2022 03:25:00 6.7 C 6.23 g/m*3 3.11 C 20.9 km/h
43 21-02-2022 03:30:00 6.7 C 6.08 g/m*3 2.79 C 24.1 km/h
44 21-02-2022 03:35:00 6.6 C 6.04 g/m*3 2.36 C 27.4 km/h
45 21-02-2022 03:40:00 6.6 C 6.04 g/m*3 3.57 C 16.1 km/h
46 21-02-2022 03:45:00 6.6 C 5.89 g/m*3 2.99 C 20.9 km/h
47 21-02-2022 03:50:00 6.6 C 5.96 g/m*3 2.36 C 27.4 km/h
48 21-02-2022 03:55:00 6.3 C 5.85 g/m*3 1.97 C 27.4 km/h
49 21-02-2022 04:00:00 6.2 C 5.88 g/m*3 0.78 C 41.8 km/h
50 21-02-2022 04:05:00 5.9 C 5.77 g/m*3 0.38 C 41.8 km/h
Sensor: Nr:Datum:Temp:Abs-Feuchte:Windchill:Wind:
Aussen-T/F 51 21-02-2022 04:10:00 5.6 C 5.44 g/m*3 -0.03 C 41.8 km/h
52 21-02-2022 04:15:00 5.6 C 5.44 g/m*3 0.08 C 40.2 km/h
53 21-02-2022 04:20:00 5.6 C 5.66 g/m*3 0.18 C 38.6 km/h
54 21-02-2022 04:25:00 5.4 C 5.79 g/m*3 0.03 C 37 km/h
55 21-02-2022 04:30:00 5.2 C 5.85 g/m*3 0.54 C 27.4 km/h
56 21-02-2022 04:35:00 5 C 5.84 g/m*3 0.78 C 22.5 km/h
57 21-02-2022 04:40:00 4.9 C 5.81 g/m*3 1.24 C 17.7 km/h
58 21-02-2022 04:45:00 4.8 C 5.77 g/m*3 1.58 C 14.5 km/h
59 21-02-2022 04:50:00 4.7 C 5.73 g/m*3 2.37 C 9.7 km/h
60 21-02-2022 04:55:00 4.7 C 5.8 g/m*3 2.03 C 11.3 km/h
61 21-02-2022 05:00:00 4.7 C 5.8 g/m*3 0.4 C 22.5 km/h
62 21-02-2022 05:05:00 4.9 C 5.67 g/m*3 -0.13 C 30.6 km/h
63 21-02-2022 05:10:00 5 C 5.64 g/m*3 -0.26 C 33.8 km/h
64 21-02-2022 05:15:00 4.9 C 5.54 g/m*3 0.48 C 24.1 km/h
65 21-02-2022 05:20:00 4.9 C 5.54 g/m*3 0.83 C 20.9 km/h
66 21-02-2022 05:25:00 4.8 C 5.63 g/m*3 0.35 C 24.1 km/h
67 21-02-2022 05:30:00 4.6 C 5.69 g/m*3 -0.52 C 30.6 km/h
68 21-02-2022 05:35:00 4.4 C 5.62 g/m*3 0.01 C 22.5 km/h
69 21-02-2022 05:40:00 4.4 C 5.62 g/m*3 0.4 C 19.3 km/h
70 21-02-2022 05:45:00 4.3 C 5.64 g/m*3 0.27 C 19.3 km/h
71 21-02-2022 05:50:00 4.3 C 5.64 g/m*3 1.55 C 11.3 km/h
72 21-02-2022 05:55:00 4.1 C 5.57 g/m*3 -1.18 C 30.6 km/h
73 21-02-2022 06:00:00 4.1 C 5.57 g/m*3 -1.57 C 35.4 km/h
74 21-02-2022 06:05:00 4.1 C 5.57 g/m*3 -1.57 C 35.4 km/h
75 21-02-2022 06:10:00 4.1 C 5.5 g/m*3 -1.03 C 29 km/h
Sensor: Nr:Datum:Temp:Abs-Feuchte:Windchill:Wind:
Aussen-T/F 76 21-02-2022 06:15:00 4.2 C 5.48 g/m*3 -0.9 C 29 km/h
77 21-02-2022 06:20:00 4.3 C 5.51 g/m*3 -0.11 C 22.5 km/h
78 21-02-2022 06:25:00 4.3 C 5.51 g/m*3 0.72 C 16.1 km/h
79 21-02-2022 06:30:00 4.2 C 5.48 g/m*3 1.12 C 12.9 km/h
80 21-02-2022 06:35:00 4.1 C 5.44 g/m*3 -0.18 C 20.9 km/h
81 21-02-2022 06:40:00 4.1 C 5.38 g/m*3 -0.55 C 24.1 km/h
82 21-02-2022 06:45:00 4.2 C 5.28 g/m*3 -0.42 C 24.1 km/h
83 21-02-2022 06:50:00 4.3 C 5.25 g/m*3 0.07 C 20.9 km/h
84 21-02-2022 06:55:00 4.3 C 5.25 g/m*3 0.97 C 14.5 km/h
85 21-02-2022 07:00:00 4.3 C 5.25 g/m*3 -0.46 C 25.7 km/h
86 21-02-2022 07:05:00 4.3 C 5.32 g/m*3 -0.46 C 25.7 km/h
87 21-02-2022 07:10:00 4.3 C 5.38 g/m*3 0.07 C 20.9 km/h
88 21-02-2022 07:15:00 4.3 C 5.38 g/m*3 0.97 C 14.5 km/h
89 21-02-2022 07:20:00 4.3 C 5.38 g/m*3 0.97 C 14.5 km/h
90 21-02-2022 07:25:00 4.2 C 5.35 g/m*3 1.77 C 9.7 km/h
91 21-02-2022 07:30:00 4.1 C 5.38 g/m*3 4.1 C 4.8 km/h
92 21-02-2022 07:35:00 3.9 C 5.37 g/m*3 3.9 C 3.2 km/h
93 21-02-2022 07:40:00 3.8 C 5.4 g/m*3 0.94 C 11.3 km/h
94 21-02-2022 07:45:00 3.8 C 5.4 g/m*3 -0.56 C 20.9 km/h
95 21-02-2022 07:50:00 3.9 C 5.43 g/m*3 -1.44 C 30.6 km/h
96 21-02-2022 07:55:00 3.9 C 5.43 g/m*3 -1.58 C 32.2 km/h
97 21-02-2022 08:00:00 3.9 C 5.43 g/m*3 -0.01 C 17.7 km/h
98 21-02-2022 08:05:00 3.9 C 5.43 g/m*3 -0.01 C 17.7 km/h
99 21-02-2022 08:10:00 3.9 C 5.43 g/m*3 -0.23 C 19.3 km/h
100 21-02-2022 08:15:00 3.9 C 5.43 g/m*3 0.47 C 14.5 km/h
Sensor: Nr:Datum:Temp:Abs-Feuchte:Windchill:Wind:
Aussen-T/F 101 21-02-2022 08:20:00 3.8 C 5.4 g/m*3 0.1 C 16.1 km/h
102 21-02-2022 08:25:00 3.8 C 5.33 g/m*3 1.29 C 9.7 km/h
103 21-02-2022 08:30:00 3.9 C 5.37 g/m*3 1.82 C 8.1 km/h
104 21-02-2022 08:35:00 3.8 C 5.27 g/m*3 0.94 C 11.3 km/h
105 21-02-2022 08:40:00 3.9 C 5.24 g/m*3 0.22 C 16.1 km/h
106 21-02-2022 08:45:00 4.1 C 5.25 g/m*3 2.05 C 8.1 km/h
107 21-02-2022 08:50:00 4.1 C 5.31 g/m*3 1.31 C 11.3 km/h
108 21-02-2022 08:55:00 4.2 C 5.28 g/m*3 0.84 C 14.5 km/h
109 21-02-2022 09:00:00 4.4 C 5.35 g/m*3 2.4 C 8.1 km/h
110 21-02-2022 09:05:00 4.4 C 5.42 g/m*3 2.01 C 9.7 km/h
111 21-02-2022 09:10:00 4.5 C 5.46 g/m*3 0.74 C 17.7 km/h
112 21-02-2022 09:15:00 4.7 C 5.4 g/m*3 0.58 C 20.9 km/h
113 21-02-2022 09:20:00 4.8 C 5.43 g/m*3 0.71 C 20.9 km/h
114 21-02-2022 09:25:00 5.1 C 5.54 g/m*3 1.28 C 19.3 km/h
115 21-02-2022 09:30:00 5.2 C 5.58 g/m*3 0.7 C 25.7 km/h
116 21-02-2022 09:35:00 5.2 C 5.51 g/m*3 0.54 C 27.4 km/h
117 21-02-2022 09:40:00 5.1 C 5.4 g/m*3 0 C 32.2 km/h
118 21-02-2022 09:45:00 5.1 C 5.47 g/m*3 1.28 C 19.3 km/h
119 21-02-2022 09:50:00 5.1 C 5.47 g/m*3 0.41 C 27.4 km/h
120 21-02-2022 09:55:00 5.1 C 5.4 g/m*3 0.74 C 24.1 km/h
121 21-02-2022 10:00:00 5.2 C 5.51 g/m*3 0.4 C 29 km/h
122 21-02-2022 10:05:00 5.3 C 5.54 g/m*3 1.16 C 22.5 km/h
123 21-02-2022 10:10:00 5.3 C 5.48 g/m*3 1.34 C 20.9 km/h
124 21-02-2022 10:15:00 5.3 C 5.48 g/m*3 1.34 C 20.9 km/h
125 21-02-2022 10:20:00 5.3 C 5.48 g/m*3 0.26 C 32.2 km/h
Sensor: Nr:Datum:Temp:Abs-Feuchte:Windchill:Wind:
Aussen-T/F 126 21-02-2022 10:25:00 5.4 C 5.44 g/m*3 0.66 C 29 km/h
127 21-02-2022 10:30:00 5.6 C 5.44 g/m*3 1.22 C 25.7 km/h
128 21-02-2022 10:35:00 5.7 C 5.34 g/m*3 1.19 C 27.4 km/h
129 21-02-2022 10:40:00 5.8 C 5.37 g/m*3 1.32 C 27.4 km/h
130 21-02-2022 10:45:00 5.9 C 5.41 g/m*3 1.18 C 30.6 km/h
131 21-02-2022 10:50:00 6.1 C 5.55 g/m*3 2.18 C 22.5 km/h
132 21-02-2022 10:55:00 6.2 C 5.52 g/m*3 1.99 C 25.7 km/h
133 21-02-2022 11:00:00 6.2 C 5.44 g/m*3 1.32 C 33.8 km/h
134 21-02-2022 11:05:00 6.3 C 5.4 g/m*3 2.12 C 25.7 km/h
135 21-02-2022 11:10:00 6.5 C 5.47 g/m*3 2.69 C 22.5 km/h
136 21-02-2022 11:15:00 6.6 C 5.51 g/m*3 2.36 C 27.4 km/h
137 21-02-2022 11:20:00 6.6 C 5.44 g/m*3 3.17 C 19.3 km/h
138 21-02-2022 11:25:00 6.7 C 5.47 g/m*3 2.79 C 24.1 km/h
139 21-02-2022 11:30:00 6.8 C 5.51 g/m*3 2.76 C 25.7 km/h
140 21-02-2022 11:35:00 6.8 C 5.58 g/m*3 2.23 C 32.2 km/h
141 21-02-2022 11:40:00 6.8 C 5.58 g/m*3 2.76 C 25.7 km/h
142 21-02-2022 11:45:00 6.9 C 5.62 g/m*3 3.2 C 22.5 km/h
143 21-02-2022 11:50:00 7 C 5.58 g/m*3 3.17 C 24.1 km/h
144 21-02-2022 11:55:00 7 C 5.58 g/m*3 3.02 C 25.7 km/h
145 21-02-2022 12:00:00 7 C 5.66 g/m*3 3.67 C 19.3 km/h
146 21-02-2022 12:05:00 7.1 C 5.69 g/m*3 3.98 C 17.7 km/h
147 21-02-2022 12:10:00 7.2 C 5.65 g/m*3 3.92 C 19.3 km/h
148 21-02-2022 12:15:00 7.2 C 5.65 g/m*3 3.58 C 22.5 km/h
149 21-02-2022 12:20:00 7.3 C 5.69 g/m*3 3.55 C 24.1 km/h
150 21-02-2022 12:25:00 7.4 C 5.65 g/m*3 3.26 C 29 km/h
Sensor: Nr:Datum:Temp:Abs-Feuchte:Windchill:Wind:
Aussen-T/F 151 21-02-2022 12:30:00 7.4 C 5.73 g/m*3 4 C 20.9 km/h
152 21-02-2022 12:35:00 7.5 C 5.84 g/m*3 3.81 C 24.1 km/h
153 21-02-2022 12:40:00 7.5 C 5.76 g/m*3 3.81 C 24.1 km/h
154 21-02-2022 12:45:00 7.6 C 5.88 g/m*3 4.25 C 20.9 km/h
155 21-02-2022 12:50:00 7.7 C 5.84 g/m*3 3.53 C 30.6 km/h
156 21-02-2022 12:55:00 7.7 C 5.92 g/m*3 3.78 C 27.4 km/h
157 21-02-2022 13:00:00 7.6 C 5.96 g/m*3 4.25 C 20.9 km/h
158 21-02-2022 13:05:00 7.6 C 6.04 g/m*3 4.42 C 19.3 km/h
159 21-02-2022 13:10:00 7.4 C 6.04 g/m*3 2.9 C 33.8 km/h
160 21-02-2022 13:15:00 7.3 C 6 g/m*3 3.87 C 20.9 km/h
161 21-02-2022 13:20:00 7.3 C 6.08 g/m*3 3.26 C 27.4 km/h
162 21-02-2022 13:25:00 7.2 C 6.12 g/m*3 3 C 29 km/h
163 21-02-2022 13:30:00 7.2 C 6.12 g/m*3 3.28 C 25.7 km/h
164 21-02-2022 13:35:00 7.2 C 6.12 g/m*3 3.28 C 25.7 km/h
165 21-02-2022 13:40:00 7.1 C 6.16 g/m*3 3.3 C 24.1 km/h
166 21-02-2022 13:45:00 7.2 C 6.28 g/m*3 2.87 C 30.6 km/h
167 21-02-2022 13:50:00 7.1 C 6.32 g/m*3 2.29 C 37 km/h
168 21-02-2022 13:55:00 7.1 C 6.4 g/m*3 2.87 C 29 km/h
169 21-02-2022 14:00:00 7 C 6.28 g/m*3 2.74 C 29 km/h
170 21-02-2022 14:05:00 6.9 C 6.24 g/m*3 3.04 C 24.1 km/h
171 21-02-2022 14:10:00 6.8 C 6.35 g/m*3 1.78 C 38.6 km/h
172 21-02-2022 14:15:00 6.7 C 6.38 g/m*3 2.1 C 32.2 km/h
173 21-02-2022 14:20:00 6.6 C 6.42 g/m*3 1.73 C 35.4 km/h
174 21-02-2022 14:25:00 6.3 C 6.44 g/m*3 1.83 C 29 km/h
175 21-02-2022 14:30:00 6.1 C 6.43 g/m*3 1.71 C 27.4 km/h
Sensor: Nr:Datum:Temp:Abs-Feuchte:Windchill:Wind:
Aussen-T/F 176 21-02-2022 14:35:00 5.9 C 6.42 g/m*3 1.93 C 22.5 km/h
177 21-02-2022 14:40:00 5.8 C 6.38 g/m*3 1.32 C 27.4 km/h
178 21-02-2022 14:45:00 5.8 C 6.38 g/m*3 0.68 C 35.4 km/h
179 21-02-2022 14:50:00 5.8 C 6.38 g/m*3 0.79 C 33.8 km/h
180 21-02-2022 14:55:00 5.8 C 6.38 g/m*3 1.32 C 27.4 km/h
181 21-02-2022 15:00:00 5.9 C 6.42 g/m*3 1.61 C 25.7 km/h
182 21-02-2022 15:05:00 5.9 C 6.42 g/m*3 1.76 C 24.1 km/h
183 21-02-2022 15:10:00 6.1 C 6.5 g/m*3 2.54 C 19.3 km/h
184 21-02-2022 15:15:00 6.1 C 6.43 g/m*3 2.18 C 22.5 km/h
185 21-02-2022 15:20:00 6.1 C 6.43 g/m*3 1.71 C 27.4 km/h
186 21-02-2022 15:25:00 6.2 C 6.47 g/m*3 2.31 C 22.5 km/h
187 21-02-2022 15:30:00 6.3 C 6.51 g/m*3 2.43 C 22.5 km/h
188 21-02-2022 15:35:00 6.3 C 6.51 g/m*3 2.98 C 17.7 km/h
189 21-02-2022 15:40:00 6.4 C 6.48 g/m*3 2.25 C 25.7 km/h
190 21-02-2022 15:45:00 6.4 C 6.48 g/m*3 2.1 C 27.4 km/h
191 21-02-2022 15:50:00 6.3 C 6.44 g/m*3 1.97 C 27.4 km/h
192 21-02-2022 15:55:00 6.2 C 6.47 g/m*3 1.57 C 30.6 km/h
193 21-02-2022 16:00:00 6.1 C 6.5 g/m*3 1.86 C 25.7 km/h
194 21-02-2022 16:05:00 6.1 C 6.58 g/m*3 2.54 C 19.3 km/h
195 21-02-2022 16:10:00 6.2 C 6.62 g/m*3 1.99 C 25.7 km/h
196 21-02-2022 16:15:00 6.3 C 6.66 g/m*3 2.12 C 25.7 km/h
197 21-02-2022 16:20:00 6.3 C 6.59 g/m*3 2.27 C 24.1 km/h
198 21-02-2022 16:25:00 6.3 C 6.59 g/m*3 2.27 C 24.1 km/h
199 21-02-2022 16:30:00 6.4 C 6.63 g/m*3 1.96 C 29 km/h
200 21-02-2022 16:35:00 6.4 C 6.63 g/m*3 2.91 C 19.3 km/h
Sensor: Nr:Datum:Temp:Abs-Feuchte:Windchill:Wind:
Aussen-T/F 201 21-02-2022 16:40:00 6.3 C 6.66 g/m*3 3.2 C 16.1 km/h
202 21-02-2022 16:45:00 6.3 C 6.66 g/m*3 1.83 C 29 km/h
203 21-02-2022 16:50:00 6.2 C 6.62 g/m*3 2.66 C 19.3 km/h
204 21-02-2022 16:55:00 6.2 C 6.62 g/m*3 3.07 C 16.1 km/h
205 21-02-2022 17:00:00 6.2 C 6.62 g/m*3 3.07 C 16.1 km/h
206 21-02-2022 17:05:00 6.3 C 6.74 g/m*3 2.79 C 19.3 km/h
207 21-02-2022 17:10:00 6.3 C 6.74 g/m*3 2.61 C 20.9 km/h
208 21-02-2022 17:15:00 6.3 C 6.66 g/m*3 2.98 C 17.7 km/h
209 21-02-2022 17:20:00 6.4 C 6.71 g/m*3 3.11 C 17.7 km/h
210 21-02-2022 17:25:00 6.4 C 6.63 g/m*3 2.4 C 24.1 km/h
211 21-02-2022 17:30:00 6.5 C 6.67 g/m*3 3.04 C 19.3 km/h
212 21-02-2022 17:35:00 6.6 C 6.72 g/m*3 3.79 C 14.5 km/h
213 21-02-2022 17:40:00 6.7 C 6.61 g/m*3 3.11 C 20.9 km/h
214 21-02-2022 17:45:00 6.9 C 6.62 g/m*3 3.54 C 19.3 km/h
215 21-02-2022 17:50:00 7.1 C 6.63 g/m*3 4.41 C 14.5 km/h
216 21-02-2022 17:55:00 7.2 C 6.52 g/m*3 3.92 C 19.3 km/h
217 21-02-2022 18:00:00 7.4 C 6.6 g/m*3 4.17 C 19.3 km/h
218 21-02-2022 18:05:00 7.5 C 6.56 g/m*3 4.68 C 16.1 km/h
219 21-02-2022 18:10:00 7.4 C 6.36 g/m*3 3.39 C 27.4 km/h
220 21-02-2022 18:15:00 7.6 C 6.36 g/m*3 3.8 C 25.7 km/h
221 21-02-2022 18:20:00 7.6 C 6.28 g/m*3 3.94 C 24.1 km/h
222 21-02-2022 18:25:00 7.6 C 6.28 g/m*3 4.61 C 17.7 km/h
223 21-02-2022 18:30:00 7.7 C 6.24 g/m*3 3.65 C 29 km/h
224 21-02-2022 18:35:00 7.7 C 6.16 g/m*3 3.78 C 27.4 km/h
225 21-02-2022 18:40:00 7.7 C 6.08 g/m*3 3.53 C 30.6 km/h
Sensor: Nr:Datum:Temp:Abs-Feuchte:Windchill:Wind:
Aussen-T/F 226 21-02-2022 18:45:00 7.7 C 6 g/m*3 3.92 C 25.7 km/h
227 21-02-2022 18:50:00 7.7 C 6.08 g/m*3 3.92 C 25.7 km/h
228 21-02-2022 18:55:00 7.8 C 6.04 g/m*3 3.32 C 35.4 km/h
229 21-02-2022 19:00:00 7.7 C 6 g/m*3 3.65 C 29 km/h
230 21-02-2022 19:05:00 7.6 C 5.8 g/m*3 4.25 C 20.9 km/h
231 21-02-2022 19:10:00 7.6 C 5.88 g/m*3 5.02 C 14.5 km/h
232 21-02-2022 19:15:00 7.5 C 5.84 g/m*3 3.67 C 25.7 km/h
233 21-02-2022 19:20:00 7.5 C 6 g/m*3 3.67 C 25.7 km/h
234 21-02-2022 19:25:00 7.4 C 6.04 g/m*3 4.17 C 19.3 km/h
235 21-02-2022 19:30:00 7.3 C 6.08 g/m*3 4.23 C 17.7 km/h
236 21-02-2022 19:35:00 7.2 C 6.12 g/m*3 3.28 C 25.7 km/h
237 21-02-2022 19:40:00 7.2 C 6.04 g/m*3 4.11 C 17.7 km/h
238 21-02-2022 19:45:00 7.2 C 6.2 g/m*3 5.35 C 9.7 km/h
239 21-02-2022 19:50:00 7.2 C 6.2 g/m*3 4.31 C 16.1 km/h
240 21-02-2022 19:55:00 7.1 C 6.24 g/m*3 4.19 C 16.1 km/h
241 21-02-2022 20:00:00 6.9 C 6.16 g/m*3 3.37 C 20.9 km/h
242 21-02-2022 20:05:00 6.8 C 6.04 g/m*3 3.61 C 17.7 km/h
243 21-02-2022 20:10:00 6.7 C 6.08 g/m*3 3.48 C 17.7 km/h
244 21-02-2022 20:15:00 6.6 C 6.04 g/m*3 3.36 C 17.7 km/h
245 21-02-2022 20:20:00 6.6 C 6.04 g/m*3 2.66 C 24.1 km/h
246 21-02-2022 20:25:00 6.6 C 6.04 g/m*3 4.32 C 11.3 km/h
247 21-02-2022 20:30:00 6.6 C 6.04 g/m*3 3.57 C 16.1 km/h
248 21-02-2022 20:35:00 6.5 C 6 g/m*3 3.92 C 12.9 km/h
249 21-02-2022 20:40:00 6.4 C 5.96 g/m*3 6.4 C 4.8 km/h
250 21-02-2022 20:45:00 6.4 C 5.96 g/m*3 4.39 C 9.7 km/h
Sensor: Nr:Datum:Temp:Abs-Feuchte:Windchill:Wind:
Aussen-T/F 251 21-02-2022 20:50:00 6.4 C 5.96 g/m*3 3.32 C 16.1 km/h
252 21-02-2022 20:55:00 6.5 C 6 g/m*3 3.67 C 14.5 km/h
253 21-02-2022 21:00:00 6.5 C 6 g/m*3 4.2 C 11.3 km/h
254 21-02-2022 21:05:00 6.6 C 6.04 g/m*3 4.32 C 11.3 km/h
255 21-02-2022 21:10:00 6.6 C 6.04 g/m*3 4.04 C 12.9 km/h
256 21-02-2022 21:15:00 6.7 C 6.08 g/m*3 4.75 C 9.7 km/h
257 21-02-2022 21:20:00 6.8 C 6.12 g/m*3 4.87 C 9.7 km/h
258 21-02-2022 21:25:00 6.8 C 6.19 g/m*3 4.56 C 11.3 km/h
259 21-02-2022 21:30:00 6.8 C 6.19 g/m*3 4.87 C 9.7 km/h
260 21-02-2022 21:35:00 6.8 C 6.19 g/m*3 4.29 C 12.9 km/h
261 21-02-2022 21:40:00 6.8 C 6.19 g/m*3 3.82 C 16.1 km/h
262 21-02-2022 21:45:00 6.8 C 6.19 g/m*3 3.82 C 16.1 km/h
263 21-02-2022 21:50:00 6.8 C 6.35 g/m*3 4.56 C 11.3 km/h
264 21-02-2022 21:55:00 6.8 C 6.5 g/m*3 4.56 C 11.3 km/h
265 21-02-2022 22:00:00 6.6 C 6.42 g/m*3 4.32 C 11.3 km/h
266 21-02-2022 22:05:00 6.5 C 6.45 g/m*3 4.2 C 11.3 km/h
267 21-02-2022 22:10:00 6.4 C 6.48 g/m*3 3.8 C 12.9 km/h
268 21-02-2022 22:15:00 6.3 C 6.44 g/m*3 4.64 C 8.1 km/h
269 21-02-2022 22:20:00 6.3 C 6.44 g/m*3 3.96 C 11.3 km/h
270 21-02-2022 22:25:00 6.3 C 6.44 g/m*3 3.96 C 11.3 km/h
271 21-02-2022 22:30:00 6.3 C 6.44 g/m*3 3.43 C 14.5 km/h
272 21-02-2022 22:35:00 6.4 C 6.48 g/m*3 3.8 C 12.9 km/h
273 21-02-2022 22:40:00 6.4 C 6.41 g/m*3 3.11 C 17.7 km/h
274 21-02-2022 22:45:00 6.6 C 6.42 g/m*3 3.79 C 14.5 km/h
275 21-02-2022 22:50:00 6.7 C 6.38 g/m*3 3.92 C 14.5 km/h
Sensor: Nr:Datum:Temp:Abs-Feuchte:Windchill:Wind:
Aussen-T/F 276 21-02-2022 22:55:00 6.8 C 6.35 g/m*3 3.24 C 20.9 km/h
277 21-02-2022 23:00:00 6.9 C 6.24 g/m*3 3.54 C 19.3 km/h
278 21-02-2022 23:05:00 7.1 C 6.24 g/m*3 3.15 C 25.7 km/h
279 21-02-2022 23:10:00 7.1 C 6.16 g/m*3 3.8 C 19.3 km/h
280 21-02-2022 23:15:00 7.2 C 6.12 g/m*3 4.77 C 12.9 km/h
281 21-02-2022 23:20:00 7.2 C 6.12 g/m*3 4.53 C 14.5 km/h
282 21-02-2022 23:25:00 7.2 C 6.12 g/m*3 5.04 C 11.3 km/h
283 21-02-2022 23:30:00 7.2 C 6.12 g/m*3 4.77 C 12.9 km/h
284 21-02-2022 23:35:00 7.2 C 6.12 g/m*3 5.69 C 8.1 km/h
285 21-02-2022 23:40:00 7.2 C 6.12 g/m*3 4.31 C 16.1 km/h
286 21-02-2022 23:45:00 7.1 C 6.08 g/m*3 4.92 C 11.3 km/h
287 21-02-2022 23:50:00 7.1 C 6.01 g/m*3 3.45 C 22.5 km/h
288 21-02-2022 23:55:00 7.1 C 5.93 g/m*3 4.65 C 12.9 km/h

Legende:
   Min
   Max


Maximal/Minimal-Werte vom 21.02.2022 - 21.02.2022

Sensor Min Max Avg
Temp
(Aussen-T/F)
3.8 °C
21-02-2022  07:40:00
10.8 °C
21-02-2022  00:05:00
6.45 °C
Abs-Feuchte
(Aussen-T/F)
5.24 g/m*3
21-02-2022  08:40:00
8.54 g/m*3
21-02-2022  01:35:00
6.14 g/m*3
Windchill
(Aussen-T/F)
-1.58 C
21-02-2022  07:55:00
8.06 C
21-02-2022  01:25:00
2.83 C

Die Daten stammen von einer Davis Vantage Pro 2 Wetter-Station und werden unter Linux mit der Software wview2wettercgi und aufbereitet. Alle Angaben erfolgen ohne Gewähr für ihre Vollständigkeit oder Richtigkeit.
Kontakt: Rainer Krienke krienke@uni-koblenz.de . Meine Webseiten an der Uni Koblenz oder privat.
Version: $Revision: 0.78 $